Terminal Aerodrome Forecast
Issued by NWS

Home | Current Version | Previous Version | Text Only | Print | Product List | Glossary On
Versions: 1 2 3 4 5 6 7 8 9 10 11 12 13 14 15 16 17
000
FTUS46 KMTR 282300
TAFSJC
TAF
KSJC 282320Z 2900/2924 31012G18KT P6SM FEW250
     FM290300 31007KT P6SM SKC
     FM290600 VRB03KT P6SM SKC
     FM291800 32012KT P6SM FEW250=

USA.gov is the U.S. government's official web portal to all federal, state and local government web resources and services.